Time;durP1;ratioP1;P1;durP2;ratioP2;P2;SDS_P1;SDS_P2;PMS_P1;PMS_P2;Temp;Humidity;BMP_temperature;BMP_pressure;BME280_temperature;BME280_humidity;BME280_pressure;Samples;Min_cycle;Max_cycle;Signal;HPM_P1;HPM_P2
2024/02/15 00:02:05;;;;;;;22.30;14.10;;;;;;;6.82;77.84;99295.00;226643;1270;22558;-81
2024/02/15 00:07:13;;;;;;;24.00;15.10;;;;;;;6.80;78.06;99295.59;226812;1274;22539;-81
2024/02/15 00:12:15;;;;;;;26.00;13.90;;;;;;;6.77;77.94;99299.77;226669;1274;26121;-82
2024/02/15 00:17:18;;;;;;;21.90;12.90;;;;;;;6.76;78.21;99302.66;226717;1273;22551;-80
2024/02/15 00:22:21;;;;;;;20.20;12.80;;;;;;;6.77;78.38;99310.55;226688;1273;22617;-80
2024/02/15 00:27:23;;;;;;;17.60;11.60;;;;;;;6.81;78.36;99312.95;226630;1274;22554;-82
2024/02/15 00:32:25;;;;;;;18.10;11.80;;;;;;;6.83;78.28;99315.35;226679;1274;22550;-81
2024/02/15 00:37:27;;;;;;;19.00;10.90;;;;;;;6.85;78.60;99318.85;226585;1274;22642;-81
2024/02/15 00:42:33;;;;;;;18.90;11.10;;;;;;;6.88;78.17;99321.21;226862;1274;22548;-82
2024/02/15 00:47:36;;;;;;;16.70;11.40;;;;;;;6.91;78.32;99328.47;226678;1273;22579;-81
2024/02/15 00:52:38;;;;;;;16.40;10.90;;;;;;;6.95;78.65;99331.23;226699;1273;22550;-81
2024/02/15 00:57:41;;;;;;;18.40;11.90;;;;;;;6.95;78.75;99328.77;226883;1273;22548;-81
2024/02/15 01:02:43;;;;;;;16.00;10.90;;;;;;;6.92;78.35;99325.85;226658;1269;22570;-81
2024/02/15 01:07:48;;;;;;;19.10;11.20;;;;;;;6.92;78.40;99322.06;226607;1274;22563;-81
2024/02/15 01:12:51;;;;;;;17.60;11.30;;;;;;;6.90;78.31;99324.67;226893;1267;25101;-80
2024/02/15 01:17:53;;;;;;;15.50;10.40;;;;;;;6.91;78.43;99313.39;226688;1275;22548;-81
2024/02/15 01:22:56;;;;;;;17.10;10.50;;;;;;;6.93;78.59;99309.31;226895;1275;22608;-79
2024/02/15 01:27:58;;;;;;;17.10;10.20;;;;;;;6.93;78.79;99304.81;226674;1269;23280;-79
2024/02/15 01:33:00;;;;;;;13.50;9.60;;;;;;;6.93;78.24;99304.12;226742;1275;22563;-81
2024/02/15 01:38:03;;;;;;;13.20;9.40;;;;;;;6.93;78.57;99296.56;226704;1274;22543;-81
2024/02/15 01:43:06;;;;;;;14.20;9.00;;;;;;;6.94;78.91;99297.30;226696;1275;22586;-80
2024/02/15 01:48:10;;;;;;;11.70;7.90;;;;;;;6.96;78.57;99294.86;226510;1275;22562;-81
2024/02/15 01:53:12;;;;;;;15.70;9.20;;;;;;;6.96;78.30;99291.48;226733;1259;22605;-81
2024/02/15 01:58:15;;;;;;;14.10;9.60;;;;;;;6.97;78.55;99289.61;226939;1269;25274;-82
2024/02/15 02:03:21;;;;;;;14.00;9.50;;;;;;;6.97;78.46;99287.77;226883;1268;23147;-81
2024/02/15 02:08:24;;;;;;;16.90;11.10;;;;;;;6.96;78.19;99285.60;226632;1275;22557;-81
2024/02/15 02:13:26;;;;;;;17.90;10.80;;;;;;;6.96;78.39;99277.36;226683;1274;22555;-82
2024/02/15 02:18:30;;;;;;;17.30;11.40;;;;;;;6.98;78.87;99274.61;226702;1273;22602;-81
2024/02/15 02:23:34;;;;;;;18.40;10.90;;;;;;;7.02;78.95;99260.58;226711;1273;23310;-81
2024/02/15 02:28:36;;;;;;;16.40;10.20;;;;;;;7.04;78.72;99264.55;226630;1275;22554;-82
2024/02/15 02:33:38;;;;;;;16.30;9.90;;;;;;;7.04;78.64;99262.83;226660;1275;22618;-81
2024/02/15 02:38:40;;;;;;;14.30;9.10;;;;;;;7.05;78.69;99255.77;226648;1274;22558;-80
2024/02/15 02:43:42;;;;;;;14.50;10.60;;;;;;;7.06;78.64;99259.89;226549;1274;22580;-81
2024/02/15 02:48:44;;;;;;;16.10;11.00;;;;;;;7.03;78.45;99257.66;226994;1269;22540;-81
2024/02/15 02:53:47;;;;;;;17.30;11.10;;;;;;;7.00;78.62;99254.88;226654;1275;22704;-80
2024/02/15 02:58:50;;;;;;;18.20;11.30;;;;;;;6.98;78.55;99258.61;226685;1273;22597;-80
2024/02/15 03:03:55;;;;;;;16.30;10.70;;;;;;;6.96;78.50;99257.76;226887;1270;22551;-81
2024/02/15 03:08:57;;;;;;;15.60;10.70;;;;;;;6.92;78.18;99259.99;226730;1270;24235;-81
2024/02/15 03:14:00;;;;;;;15.90;10.20;;;;;;;6.89;78.65;99258.48;226733;1275;22576;-82
2024/02/15 03:19:05;;;;;;;16.60;10.60;;;;;;;6.85;78.51;99260.54;226929;1272;22563;-81
2024/02/15 03:24:07;;;;;;;19.80;11.20;;;;;;;6.84;78.57;99263.45;226739;1270;22543;-81
2024/02/15 03:29:10;;;;;;;16.50;11.00;;;;;;;6.84;79.03;99263.06;226692;1274;22582;-80
2024/02/15 03:34:14;;;;;;;14.90;11.50;;;;;;;6.87;78.58;99264.94;226701;1273;22604;-80
2024/02/15 03:39:17;;;;;;;19.20;11.60;;;;;;;6.85;78.70;99263.50;226697;1274;22573;-81
2024/02/15 03:44:20;;;;;;;17.10;11.40;;;;;;;6.83;78.58;99261.77;226904;1273;25330;-81
2024/02/15 03:49:22;;;;;;;14.80;9.30;;;;;;;6.84;78.63;99257.02;226897;1274;22566;-79
2024/02/15 03:54:25;;;;;;;13.20;9.20;;;;;;;6.84;78.82;99255.94;226861;1270;25265;-79
2024/02/15 03:59:27;;;;;;;13.60;9.70;;;;;;;6.84;78.46;99260.46;226641;1271;22561;-81
2024/02/15 04:04:30;;;;;;;14.90;9.30;;;;;;;6.85;79.03;99263.56;226869;1268;22543;-81
2024/02/15 04:09:35;;;;;;;12.30;9.10;;;;;;;6.86;79.00;99262.20;226914;1272;22551;-80
2024/02/15 04:14:41;;;;;;;14.00;9.40;;;;;;;6.89;78.78;99254.73;226672;1274;22550;-80
2024/02/15 04:19:46;;;;;;;16.00;9.90;;;;;;;6.93;78.98;99255.95;226692;1274;22540;-81
2024/02/15 04:24:48;;;;;;;14.00;9.30;;;;;;;6.95;79.33;99256.23;226891;1273;22614;-81
2024/02/15 04:29:50;;;;;;;14.40;9.60;;;;;;;6.95;79.16;99258.86;226866;1272;22617;-80
2024/02/15 04:34:52;;;;;;;16.00;9.40;;;;;;;6.95;78.78;99259.40;226922;1271;23074;-81
2024/02/15 04:39:56;;;;;;;13.20;9.10;;;;;;;6.93;79.15;99268.14;226802;1272;22581;-81
2024/02/15 04:44:59;;;;;;;13.90;9.60;;;;;;;6.91;79.15;99273.46;227006;1258;23128;-81
2024/02/15 04:50:02;;;;;;;17.50;10.10;;;;;;;6.90;78.88;99274.27;226763;1271;22565;-81
2024/02/15 04:55:05;;;;;;;13.50;9.90;;;;;;;6.90;79.03;99274.91;226679;1274;23714;-81
2024/02/15 05:00:09;;;;;;;14.70;10.40;;;;;;;6.89;79.20;99270.66;226738;1274;22549;-81
2024/02/15 05:05:12;;;;;;;15.90;11.10;;;;;;;6.85;78.84;99273.39;226759;1273;22662;-81
2024/02/15 05:10:16;;;;;;;17.00;10.60;;;;;;;6.77;78.88;99273.79;226548;1271;22589;-82
2024/02/15 05:15:18;;;;;;;16.30;10.90;;;;;;;6.70;79.28;99275.04;226877;1271;24379;-81
2024/02/15 05:20:21;;;;;;;14.50;11.00;;;;;;;6.62;79.34;99285.93;226716;1274;25346;-81
2024/02/15 05:25:23;;;;;;;18.60;11.20;;;;;;;6.54;79.43;99288.09;226667;1274;23111;-80
2024/02/15 05:30:29;;;;;;;13.30;10.30;;;;;;;6.45;79.58;99290.59;226924;1271;22557;-81
2024/02/15 05:35:32;;;;;;;15.20;10.70;;;;;;;6.32;79.39;99294.89;226789;1269;23297;-81
2024/02/15 05:40:34;;;;;;;17.40;11.90;;;;;;;6.17;79.45;99294.95;226856;1274;22539;-81
2024/02/15 05:45:39;;;;;;;14.80;11.70;;;;;;;6.04;79.58;99296.04;226585;1274;22547;-81
2024/02/15 05:50:41;;;;;;;19.10;12.00;;;;;;;5.91;79.15;99295.11;226717;1271;22574;-81
2024/02/15 05:55:44;;;;;;;19.90;13.10;;;;;;;5.82;80.01;99294.77;226686;1251;22559;-81
2024/02/15 06:00:49;;;;;;;16.30;12.30;;;;;;;5.75;79.95;99302.23;226732;1273;22527;-82
2024/02/15 06:05:57;;;;;;;18.30;13.60;;;;;;;5.68;80.11;99307.43;226695;1274;22551;-81
2024/02/15 06:11:01;;;;;;;15.00;11.70;;;;;;;5.62;80.14;99310.77;226944;1275;22567;-82
2024/02/15 06:16:09;;;;;;;16.40;11.60;;;;;;;5.58;80.35;99318.98;226648;1274;22550;-81
2024/02/15 06:21:11;;;;;;;18.30;12.80;;;;;;;5.58;80.52;99320.64;226844;1273;22571;-81
2024/02/15 06:26:18;;;;;;;19.80;12.10;;;;;;;5.58;80.56;99324.25;226695;1271;22552;-81
2024/02/15 06:42:15;;;;;;;20.70;14.60;;;;;;;5.75;80.96;99323.04;226742;1273;22567;-81
2024/02/15 06:47:20;;;;;;;23.50;15.00;;;;;;;5.82;81.17;99329.65;226689;1251;22590;-82
2024/02/15 06:52:22;;;;;;;26.40;18.00;;;;;;;5.96;81.10;99334.48;226542;1262;22554;-79
2024/02/15 06:57:25;;;;;;;18.80;12.90;;;;;;;6.13;81.28;99331.89;226749;1268;22601;-84
2024/02/15 07:02:28;;;;;;;22.20;13.80;;;;;;;6.43;81.48;99331.73;226383;1267;22560;-82
2024/02/15 07:07:31;;;;;;;21.80;14.30;;;;;;;6.66;81.15;99325.25;226535;1267;22547;-83
2024/02/15 07:12:33;;;;;;;16.60;11.80;;;;;;;6.82;81.00;99329.34;226707;1251;22551;-82
2024/02/15 07:17:39;;;;;;;19.40;12.00;;;;;;;6.91;80.40;99335.06;226307;1269;22503;-82
2024/02/15 07:22:45;;;;;;;17.50;12.50;;;;;;;6.98;80.66;99336.86;226463;1261;22578;-79
2024/02/15 07:27:47;;;;;;;17.70;11.00;;;;;;;7.09;80.29;99348.58;226254;1255;22578;-80
2024/02/15 07:32:50;;;;;;;16.50;11.90;;;;;;;7.24;80.32;99344.92;226206;1268;22528;-78
2024/02/15 07:37:58;;;;;;;20.10;13.40;;;;;;;7.42;80.30;99342.04;226046;1271;24265;-79
2024/02/15 07:43:00;;;;;;;17.20;10.70;;;;;;;7.70;80.34;99333.77;226111;1264;22547;-78
2024/02/15 07:48:05;;;;;;;14.70;9.70;;;;;;;8.03;79.98;99334.09;226394;1273;22551;-80
2024/02/15 07:53:10;;;;;;;13.50;9.10;;;;;;;8.33;79.56;99333.95;226345;1268;22597;-78
2024/02/15 07:58:13;;;;;;;19.70;15.30;;;;;;;8.56;79.02;99331.55;226391;1268;25001;-78
2024/02/15 08:03:15;;;;;;;14.60;10.00;;;;;;;8.80;78.92;99323.83;226341;1270;22536;-79
2024/02/15 08:08:18;;;;;;;14.00;8.70;;;;;;;8.95;78.40;99325.22;226147;1268;22575;-77
2024/02/15 08:13:22;;;;;;;13.30;9.10;;;;;;;9.04;78.03;99316.48;226281;1259;22551;-75
2024/02/15 08:18:25;;;;;;;15.40;9.30;;;;;;;9.09;77.56;99311.58;226004;1274;22547;-76
2024/02/15 08:23:27;;;;;;;11.50;8.80;;;;;;;9.16;77.81;99305.58;226410;1263;25040;-73
2024/02/15 08:28:29;;;;;;;13.60;8.80;;;;;;;9.21;77.21;99302.50;226207;1268;22556;-76
2024/02/15 08:33:31;;;;;;;13.20;8.80;;;;;;;9.25;76.85;99304.29;225985;1252;22586;-77
2024/02/15 08:38:34;;;;;;;12.50;8.60;;;;;;;9.20;76.71;99306.70;226036;1252;22586;-76
2024/02/15 08:43:38;;;;;;;11.80;7.90;;;;;;;9.14;76.90;99310.83;226357;1271;23042;-76
2024/02/15 08:48:41;;;;;;;11.90;8.10;;;;;;;9.15;77.00;99314.74;226049;1263;24663;-75
2024/02/15 08:53:43;;;;;;;10.00;7.00;;;;;;;9.32;77.40;99317.89;225978;1267;22555;-76
2024/02/15 08:58:45;;;;;;;11.80;7.70;;;;;;;9.51;77.17;99318.59;226145;1255;22544;-76
2024/02/15 09:03:47;;;;;;;12.40;7.40;;;;;;;9.69;76.83;99315.41;226482;1267;22610;-77
2024/02/15 09:08:50;;;;;;;10.00;7.00;;;;;;;9.87;76.95;99318.27;226360;1267;22537;-78
2024/02/15 09:13:52;;;;;;;10.40;6.90;;;;;;;10.03;76.56;99319.82;226178;1270;22533;-74
2024/02/15 09:18:54;;;;;;;11.10;7.30;;;;;;;10.17;76.46;99316.88;226215;1255;254217;-74
2024/02/15 09:23:56;;;;;;;13.70;7.20;;;;;;;10.29;76.18;99317.78;226404;1251;23085;-75
2024/02/15 09:28:58;;;;;;;8.60;6.80;;;;;;;10.42;76.12;99319.22;226310;1255;22553;-75
2024/02/15 09:34:00;;;;;;;10.30;6.70;;;;;;;10.54;75.75;99322.77;226502;1259;25293;-74
2024/02/15 09:39:02;;;;;;;9.00;5.80;;;;;;;10.67;75.61;99324.64;226226;1268;22549;-75
2024/02/15 09:44:05;;;;;;;11.20;6.30;;;;;;;10.81;75.33;99317.16;226469;1262;22562;-75
2024/02/15 09:49:07;;;;;;;9.60;7.10;;;;;;;10.98;75.27;99317.96;226357;1256;22551;-75
2024/02/15 09:54:11;;;;;;;8.10;5.80;;;;;;;11.15;74.55;99319.73;226336;1261;22559;-75
2024/02/15 09:59:13;;;;;;;7.70;5.50;;;;;;;11.33;74.46;99319.33;226396;1257;22584;-74
2024/02/15 10:04:16;;;;;;;8.50;5.40;;;;;;;11.64;74.43;99314.85;226395;1268;22548;-75
2024/02/15 10:09:29;;;;;;;9.30;5.20;;;;;;;11.82;73.84;99314.63;226280;1261;22546;-75
2024/02/15 10:14:32;;;;;;;8.30;5.50;;;;;;;11.86;73.07;99307.77;226085;1252;25231;-76
2024/02/15 10:19:35;;;;;;;6.20;5.10;;;;;;;11.83;72.87;99303.08;226348;1267;25378;-77
2024/02/15 10:24:39;;;;;;;13.90;5.10;;;;;;;11.85;72.65;99301.11;226206;1252;22546;-76
2024/02/15 10:29:41;;;;;;;7.30;5.30;;;;;;;11.86;72.32;99305.36;225990;1268;22546;-76
2024/02/15 10:34:44;;;;;;;15.70;8.40;;;;;;;11.90;72.44;99306.25;225936;1271;26150;-75
2024/02/15 10:40:05;;;;;;;8.90;5.30;;;;;;;12.04;72.36;99312.19;225635;1258;22484;-75
2024/02/15 10:45:10;;;;;;;5.40;4.50;;;;;;;12.19;72.10;99304.67;226064;1256;22609;-76
2024/02/15 10:50:15;;;;;;;7.10;4.60;;;;;;;12.32;71.71;99302.52;225989;1255;22555;-75
2024/02/15 10:55:25;;;;;;;5.60;4.60;;;;;;;12.48;71.57;99297.23;225868;1265;22554;-76
2024/02/15 11:00:31;;;;;;;6.90;5.30;;;;;;;12.57;71.23;99293.53;225878;1252;22579;-77
2024/02/15 11:05:37;;;;;;;6.10;5.00;;;;;;;12.61;71.04;99289.86;226103;1271;22552;-80
2024/02/15 11:10:43;;;;;;;6.80;4.40;;;;;;;12.67;70.95;99290.13;226216;1267;22555;-79
2024/02/15 11:15:49;;;;;;;8.00;4.60;;;;;;;12.67;70.63;99286.21;226463;1262;24203;-76
2024/02/15 11:20:56;;;;;;;7.60;4.60;;;;;;;12.71;70.80;99281.36;226016;1259;22550;-77
2024/02/15 11:26:00;;;;;;;7.00;4.70;;;;;;;12.72;70.62;99272.96;225951;1271;22537;-75
2024/02/15 11:31:03;;;;;;;8.90;6.10;;;;;;;12.69;70.33;99266.40;226098;1268;22544;-77
2024/02/15 11:36:11;;;;;;;7.20;5.00;;;;;;;12.72;70.71;99271.09;226297;1270;22547;-77
2024/02/15 11:41:18;;;;;;;6.40;4.90;;;;;;;12.69;70.02;99264.73;226075;1263;22563;-76
2024/02/15 11:46:21;;;;;;;8.80;4.50;;;;;;;12.64;70.33;99265.86;226152;1261;22546;-77
2024/02/15 11:51:26;;;;;;;7.30;4.70;;;;;;;12.78;70.90;99263.48;226163;1255;25371;-77
2024/02/15 11:56:29;;;;;;;5.90;4.70;;;;;;;12.95;70.86;99263.33;225794;1271;22555;-76
2024/02/15 12:23:02;;;;;;;8.50;4.80;;;;;;;13.34;69.81;99249.02;225988;1271;22564;-77
2024/02/15 12:28:04;;;;;;;7.10;5.20;;;;;;;13.39;70.14;99246.13;226035;1271;22566;-76
2024/02/15 12:33:19;;;;;;;6.50;5.30;;;;;;;13.44;69.95;99240.14;226183;1268;22553;-77
2024/02/15 12:38:22;;;;;;;8.90;6.10;;;;;;;13.48;70.08;99236.61;226208;1252;22692;-77
2024/02/15 12:43:36;;;;;;;7.90;5.50;;;;;;;13.54;69.87;99231.64;226422;1259;22542;-78
2024/02/15 12:48:40;;;;;;;12.00;5.80;;;;;;;13.52;69.89;99227.43;226314;1269;23115;-78
2024/02/15 12:53:43;;;;;;;8.30;5.90;;;;;;;13.44;69.58;99225.47;226143;1267;24275;-78
2024/02/15 12:58:46;;;;;;;6.60;5.10;;;;;;;13.32;69.98;99229.95;226126;1269;22565;-77
2024/02/15 13:03:48;;;;;;;7.40;5.00;;;;;;;13.28;69.89;99225.00;225871;1253;22546;-77
2024/02/15 13:08:51;;;;;;;7.00;4.90;;;;;;;13.29;70.29;99225.49;225882;1268;22547;-79
2024/02/15 13:13:54;;;;;;;7.50;5.10;;;;;;;13.33;70.52;99214.23;226210;1260;25358;-77
2024/02/15 13:59:34;;;;;;;7.00;4.20;;;;;;;13.07;70.67;99199.23;219918;1294;545208;-73
2024/02/15 14:04:36;;;;;;;5.30;4.40;;;;;;;12.85;71.04;99204.50;224455;1275;24275;-72
2024/02/15 14:09:38;;;;;;;5.30;4.10;;;;;;;12.75;71.44;99200.43;224331;1271;191831;-74
2024/02/15 14:14:40;;;;;;;5.60;3.70;;;;;;;12.70;71.61;99199.41;224625;1274;22988;-79
2024/02/15 14:19:43;;;;;;;4.90;4.30;;;;;;;12.70;71.67;99202.09;224669;1278;22554;-80
2024/02/15 14:24:45;;;;;;;6.20;3.80;;;;;;;12.68;71.66;99200.57;225394;1268;22740;-80
2024/02/15 14:35:08;;;;;;;4.10;3.20;;;;;;;12.63;71.80;99199.05;225486;1271;22594;-82
2024/02/15 14:40:14;;;;;;;5.70;3.30;;;;;;;12.60;72.35;99193.29;225833;1272;22575;-82
2024/02/15 14:45:19;;;;;;;5.40;3.90;;;;;;;12.56;72.14;99189.73;225667;1271;22592;-75
2024/02/15 14:50:23;;;;;;;8.40;4.60;;;;;;;12.48;72.30;99198.83;225260;1279;25260;-74
2024/02/15 14:55:25;;;;;;;5.00;3.70;;;;;;;12.42;72.47;99203.15;225218;1274;22550;-75
2024/02/15 15:00:27;;;;;;;6.20;3.50;;;;;;;12.34;72.57;99206.92;225225;1280;22667;-75
2024/02/15 15:16:17;;;;;;;5.50;4.10;;;;;;;12.06;73.11;99210.06;225289;1281;22546;-74
2024/02/15 15:21:21;;;;;;;6.90;3.90;;;;;;;11.93;73.23;99212.14;225323;1280;22581;-75
2024/02/15 15:26:23;;;;;;;4.50;3.70;;;;;;;11.84;73.53;99219.23;225463;1277;22564;-74
2024/02/15 15:31:25;;;;;;;3.90;3.50;;;;;;;11.78;73.71;99221.41;226377;1273;22554;-75
2024/02/15 15:36:28;;;;;;;4.50;3.60;;;;;;;11.73;73.86;99224.49;226466;1273;22553;-75
2024/02/15 15:41:30;;;;;;;4.40;3.50;;;;;;;11.62;73.91;99224.65;226474;1272;22574;-75
2024/02/15 15:46:33;;;;;;;5.70;3.60;;;;;;;11.43;74.10;99229.07;226509;1273;22660;-75
2024/02/15 15:51:35;;;;;;;5.40;3.90;;;;;;;11.21;74.34;99233.71;226465;1269;25295;-75
2024/02/15 15:56:37;;;;;;;7.40;4.10;;;;;;;10.98;74.64;99232.52;226485;1273;22555;-74
2024/02/15 16:01:47;;;;;;;8.30;5.40;;;;;;;10.77;75.04;99243.14;226483;1273;25348;-75
2024/02/15 16:06:49;;;;;;;6.80;4.70;;;;;;;10.54;75.19;99247.35;226470;1276;22578;-74
2024/02/15 16:11:53;;;;;;;5.60;4.60;;;;;;;10.34;75.96;99256.19;226405;1274;22550;-75
2024/02/15 16:16:56;;;;;;;10.40;4.60;;;;;;;10.15;76.35;99264.10;226481;1273;23048;-75
2024/02/15 16:21:58;;;;;;;8.30;4.50;;;;;;;9.99;76.65;99271.56;226588;1273;22595;-75
2024/02/15 16:27:06;;;;;;;6.10;5.10;;;;;;;9.83;76.94;99268.63;226560;1276;22553;-75
2024/02/15 16:32:10;;;;;;;8.30;5.70;;;;;;;9.68;77.60;99270.66;226540;1268;24276;-76
2024/02/15 16:37:12;;;;;;;8.50;6.30;;;;;;;9.55;77.85;99266.88;226642;1273;22571;-75
2024/02/15 16:42:14;;;;;;;9.10;6.80;;;;;;;9.42;78.00;99275.62;226637;1268;22547;-75
2024/02/15 16:47:18;;;;;;;11.40;7.10;;;;;;;9.31;78.34;99277.98;226555;1271;22554;-76
2024/02/15 16:52:20;;;;;;;7.50;6.30;;;;;;;9.21;78.67;99279.17;226692;1271;25391;-75
2024/02/15 16:57:22;;;;;;;11.10;6.80;;;;;;;9.14;79.12;99278.34;226586;1271;22542;-75
2024/02/15 17:02:25;;;;;;;9.20;7.40;;;;;;;9.08;79.55;99283.07;226542;1274;22546;-76
2024/02/15 17:07:30;;;;;;;9.40;7.10;;;;;;;9.01;79.48;99288.03;226573;1273;22553;-75
2024/02/15 17:12:34;;;;;;;10.80;7.90;;;;;;;8.96;79.79;99295.77;226557;1273;22578;-75
2024/02/15 17:17:38;;;;;;;10.70;7.60;;;;;;;8.89;79.65;99297.13;226473;1272;22500;-75
2024/02/15 17:22:42;;;;;;;13.80;9.00;;;;;;;8.81;80.05;99300.02;226588;1271;22539;-75
2024/02/15 17:27:46;;;;;;;13.10;9.40;;;;;;;8.75;80.10;99303.98;226617;1271;25429;-76
2024/02/15 17:32:48;;;;;;;15.60;11.10;;;;;;;8.71;80.23;99307.13;226462;1272;22572;-76
2024/02/15 17:37:50;;;;;;;14.70;11.50;;;;;;;8.65;80.79;99309.28;226599;1272;25306;-76
2024/02/15 17:42:52;;;;;;;19.00;11.40;;;;;;;8.61;80.73;99308.52;226594;1268;25290;-76
2024/02/15 17:47:54;;;;;;;16.80;11.70;;;;;;;8.61;81.09;99312.39;226562;1271;22524;-75
2024/02/15 17:52:56;;;;;;;16.60;11.20;;;;;;;8.60;81.24;99312.53;226575;1271;22543;-74
2024/02/15 17:58:01;;;;;;;18.30;12.10;;;;;;;8.58;81.17;99316.09;226545;1273;22577;-75
2024/02/15 18:03:03;;;;;;;17.40;12.40;;;;;;;8.55;81.30;99316.73;226532;1273;23127;-77
2024/02/15 18:08:05;;;;;;;15.60;10.90;;;;;;;8.52;81.77;99322.36;226326;1268;22543;-75
2024/02/15 18:13:07;;;;;;;17.90;11.00;;;;;;;8.49;82.39;99319.06;226820;1269;22576;-75
2024/02/15 18:18:11;;;;;;;15.50;11.40;;;;;;;8.47;82.17;99317.30;226886;1252;24226;-75
2024/02/15 18:23:13;;;;;;;18.00;12.50;;;;;;;8.45;82.25;99318.46;226805;1265;22582;-76
2024/02/15 18:28:16;;;;;;;13.10;10.60;;;;;;;8.43;82.72;99316.79;226812;1275;22546;-75
2024/02/15 18:33:18;;;;;;;16.70;12.10;;;;;;;8.41;82.69;99317.02;226802;1275;22554;-75
2024/02/15 18:38:21;;;;;;;18.90;13.30;;;;;;;8.36;83.11;99320.98;226777;1271;22628;-75
2024/02/15 18:43:25;;;;;;;19.10;12.60;;;;;;;8.33;82.62;99319.04;226577;1274;24264;-74
2024/02/15 18:48:27;;;;;;;20.10;12.50;;;;;;;8.29;82.77;99316.32;226691;1260;22585;-75
2024/02/15 18:53:30;;;;;;;17.70;13.00;;;;;;;8.27;82.98;99311.96;226712;1274;22587;-75
2024/02/15 18:58:32;;;;;;;19.50;12.60;;;;;;;8.25;83.29;99317.10;226776;1271;22691;-76
2024/02/15 19:03:34;;;;;;;19.30;13.30;;;;;;;8.20;82.94;99317.04;226769;1272;22557;-75
2024/02/15 19:08:39;;;;;;;22.30;15.20;;;;;;;8.15;83.35;99316.31;226781;1268;22539;-75
2024/02/15 19:13:42;;;;;;;21.20;15.50;;;;;;;8.10;83.28;99322.84;226810;1274;22619;-75
2024/02/15 19:18:45;;;;;;;21.80;17.00;;;;;;;8.00;83.11;99321.54;226795;1274;22540;-76
2024/02/15 19:23:47;;;;;;;28.20;20.10;;;;;;;7.89;82.90;99321.30;226815;1272;25068;-76
2024/02/15 19:28:49;;;;;;;31.30;23.90;;;;;;;7.76;82.72;99318.96;226831;1271;22626;-76
2024/02/15 19:33:51;;;;;;;31.30;22.20;;;;;;;7.66;83.21;99325.45;226824;1271;22562;-75
2024/02/15 19:38:58;;;;;;;32.50;23.40;;;;;;;7.56;83.27;99324.88;226761;1273;22549;-76
2024/02/15 19:44:01;;;;;;;37.30;25.80;;;;;;;7.48;83.31;99324.88;226760;1271;22542;-77
2024/02/15 19:49:04;;;;;;;33.30;24.60;;;;;;;7.40;83.76;99324.08;226765;1274;22593;-76
2024/02/15 19:54:06;;;;;;;37.20;26.50;;;;;;;7.33;84.25;99324.06;226600;1274;22559;-75
2024/02/15 19:59:09;;;;;;;37.80;25.00;;;;;;;7.28;84.34;99327.67;226765;1272;22554;-77
2024/02/15 20:04:11;;;;;;;37.30;27.10;;;;;;;7.27;84.19;99328.84;226742;1268;25255;-76
2024/02/15 20:09:14;;;;;;;37.90;26.60;;;;;;;7.31;84.71;99333.38;226788;1274;22566;-76
2024/02/15 20:14:21;;;;;;;37.80;27.40;;;;;;;7.36;84.98;99327.05;226826;1271;22557;-76
2024/02/15 20:19:26;;;;;;;33.80;24.00;;;;;;;7.42;84.91;99328.02;226747;1271;22558;-75
2024/02/15 20:24:28;;;;;;;33.50;23.80;;;;;;;7.50;85.34;99326.05;226685;1271;22549;-76
2024/02/15 20:29:31;;;;;;;30.90;23.00;;;;;;;7.59;85.15;99327.34;226640;1275;25439;-76
2024/02/15 20:34:33;;;;;;;35.60;24.60;;;;;;;7.67;85.30;99324.97;226694;1274;22561;-75
2024/02/15 20:39:35;;;;;;;34.00;24.40;;;;;;;7.72;85.58;99324.23;226755;1274;22544;-75
2024/02/15 20:44:38;;;;;;;32.50;23.60;;;;;;;7.73;85.44;99321.36;226794;1275;22549;-75
2024/02/15 20:49:40;;;;;;;35.50;24.60;;;;;;;7.73;85.17;99319.23;226740;1271;22542;-75
2024/02/15 20:54:43;;;;;;;31.20;23.60;;;;;;;7.72;85.44;99314.50;226742;1272;22534;-75
2024/02/15 20:59:45;;;;;;;34.10;24.20;;;;;;;7.65;85.41;99311.98;226760;1274;25386;-76
2024/02/15 21:04:47;;;;;;;33.30;22.50;;;;;;;7.57;85.48;99310.73;226840;1274;22554;-76
2024/02/15 21:09:49;;;;;;;28.60;21.80;;;;;;;7.49;85.21;99315.23;226719;1273;22539;-75
2024/02/15 21:14:52;;;;;;;33.20;25.00;;;;;;;7.46;85.79;99311.36;226760;1272;22687;-75
2024/02/15 21:19:54;;;;;;;40.60;30.60;;;;;;;7.42;85.91;99304.73;226739;1274;22575;-75
2024/02/15 21:24:58;;;;;;;36.70;29.00;;;;;;;7.37;85.88;99303.83;226804;1275;25341;-76
2024/02/15 21:30:04;;;;;;;42.30;29.20;;;;;;;7.31;86.27;99300.09;226751;1271;22537;-76
2024/02/15 21:35:07;;;;;;;43.90;31.20;;;;;;;7.26;86.00;99296.91;226654;1274;23280;-76
2024/02/15 21:40:10;;;;;;;43.60;32.30;;;;;;;7.26;85.91;99296.27;226678;1275;22535;-76
2024/02/15 21:45:12;;;;;;;42.40;30.10;;;;;;;7.28;86.53;99288.11;226774;1271;22542;-76
2024/02/15 21:50:15;;;;;;;40.00;26.90;;;;;;;7.33;86.34;99285.30;226692;1269;24247;-76
2024/02/15 21:55:17;;;;;;;40.70;28.50;;;;;;;7.39;86.56;99281.20;226763;1272;22550;-75
2024/02/15 22:06:23;;;;;;;38.80;26.90;;;;;;;7.58;86.66;99281.70;226771;1275;22609;-75
2024/02/15 22:11:25;;;;;;;34.10;25.10;;;;;;;7.66;86.71;99281.11;226792;1271;22573;-75
2024/02/15 22:16:27;;;;;;;33.20;25.00;;;;;;;7.70;86.66;99285.44;226751;1272;24252;-75
2024/02/15 22:21:29;;;;;;;30.90;22.60;;;;;;;7.72;86.42;99291.45;226747;1271;22650;-76
2024/02/15 22:26:32;;;;;;;33.50;22.60;;;;;;;7.77;86.48;99293.59;226670;1274;22585;-76
2024/02/15 22:31:34;;;;;;;26.90;20.00;;;;;;;7.84;86.45;99295.23;226809;1274;22529;-76
2024/02/15 22:36:36;;;;;;;27.10;20.60;;;;;;;7.89;86.37;99287.08;226710;1273;22546;-75
2024/02/15 22:41:38;;;;;;;32.50;20.40;;;;;;;7.92;86.52;99283.69;226680;1274;22540;-75
2024/02/15 22:46:50;;;;;;;30.00;21.00;;;;;;;7.94;86.23;99283.99;226645;1274;25499;-75
2024/02/15 22:51:54;;;;;;;28.30;20.80;;;;;;;7.96;86.64;99281.66;226714;1274;22652;-75
2024/02/15 22:56:56;;;;;;;28.30;21.00;;;;;;;7.97;86.35;99282.93;226734;1273;22547;-75
2024/02/15 23:01:59;;;;;;;27.40;20.60;;;;;;;7.99;86.58;99286.55;226744;1271;22558;-76
2024/02/15 23:07:07;;;;;;;28.90;21.10;;;;;;;8.03;86.59;99283.65;226748;1272;22555;-75
2024/02/15 23:12:10;;;;;;;33.10;20.40;;;;;;;8.07;86.74;99284.19;226750;1274;22547;-75
2024/02/15 23:17:13;;;;;;;33.70;22.00;;;;;;;8.10;86.48;99289.98;226700;1274;22651;-75
2024/02/15 23:22:15;;;;;;;29.40;21.70;;;;;;;8.14;86.84;99287.83;226684;1272;22555;-75
2024/02/15 23:27:17;;;;;;;31.20;22.70;;;;;;;8.18;86.46;99289.32;226630;1272;22574;-75
2024/02/15 23:32:19;;;;;;;33.80;22.20;;;;;;;8.22;86.37;99287.36;226469;1274;22586;-75
2024/02/15 23:42:43;;;;;;;29.30;20.50;;;;;;;8.30;86.73;99287.07;226798;1274;22565;-76
2024/02/15 23:47:47;;;;;;;31.50;20.70;;;;;;;8.32;86.63;99282.94;226725;1272;22542;-75
2024/02/15 23:52:49;;;;;;;29.20;20.40;;;;;;;8.35;86.42;99283.13;226809;1271;25308;-76
2024/02/15 23:57:52;;;;;;;26.60;18.90;;;;;;;8.36;86.65;99277.79;226742;1274;22550;-75
